West Hamlin, West Virginia
Current Conditions -  °F | °C
As of 10:51 AM on Monday 22 Dec 2014 (Local Time) from KHTS Reporting Station
Clear Clear  
Wind Chill: 46°   Ceiling: Unl
Heat Index: 46°   Visibility: 10mi
Dew Point: 36°   Wind: 3mph
Humidity: 68%   Direction: 120°ESE
Pressure: 30.02"   Gusts: NA
Location:  38.29°N, 82.2°W
Report Text: KHTS 221551Z 12003KT 10SM CLR 08/02 A3002 RMK AO2 SLP169 T00780022
Loading
Personal Weather Stations






























Interactive Weather Map New forecast layout! Learn more

10-Day Weather Forecast

Advertisements
Track Severe Weather on mobile